Terminal Aerodrome Forecast
Issued by NWS

Home | Current Version | Previous Version | Text Only | Print | Product List | Glossary On
Versions: 1 2 3 4 5 6 7 8 9 10 11 12
955
FTUS46 KSEW 211720
TAFCLM
TAF
KCLM 211720Z 2118/2218 29012G22KT P6SM SCT040
     FM220500 30006KT P6SM SCT050 BKN250
     FM221200 VRB03KT P6SM SCT003 SCT250
      TEMPO 2212/2216 3SM BR BKN003
     FM221700 33007KT P6SM SCT250=

USA.gov is the U.S. government's official web portal to all federal, state and local government web resources and services.